Mount Signal, California
Current Conditions -  °F | °C
As of 2:53 PM on Friday 31 Oct 2014 (Local Time) from KIPL Reporting Station
Clear Clear  
Wind Chill: 86°   Ceiling: Unl
Heat Index: 86°   Visibility: 10mi
Dew Point: 43°   Wind: 6mph
Humidity: 22%   Direction: NA
Pressure: 29.73"   Gusts: NA
Location:  32.6882°N, 115.548°W
Report Text: KIPL 312153Z AUTO VRB05KT 10SM CLR 30/06 A2973 RMK AO2 SLP068 T03000061
Loading
Personal Weather Stations






























Interactive Weather Map
Tropical Storm Tracking
New forecast layout! Learn more

10-Day Weather Forecast

Advertisements
Track Severe Weather on mobile